Time;durP1;ratioP1;P1;durP2;ratioP2;P2;SDS_P1;SDS_P2;PMS_P1;PMS_P2;Temp;Humidity;BMP_temperature;BMP_pressure;BME280_temperature;BME280_humidity;BME280_pressure;Samples;Min_cycle;Max_cycle;Signal;HPM_P1;HPM_P2
2023/04/10 00:01:05;;;;;;;1999.90;999.90;;;2.10;88.50;;;;;;5053458;28;20035;-72
2023/04/10 00:03:32;;;;;;;1999.90;999.90;;;1.90;88.10;;;;;;5034575;28;20462;-73
2023/04/10 00:05:58;;;;;;;1999.90;999.90;;;1.80;88.00;;;;;;5034266;28;20507;-72
2023/04/10 00:08:24;;;;;;;1999.90;999.90;;;1.90;89.00;;;;;;5035642;28;20022;-73
2023/04/10 00:10:50;;;;;;;1999.90;999.90;;;1.80;89.00;;;;;;5039145;28;20033;-73
2023/04/10 00:13:16;;;;;;;1999.90;999.90;;;1.70;88.80;;;;;;5035166;28;20492;-73
2023/04/10 00:15:42;;;;;;;1999.90;999.90;;;1.60;89.30;;;;;;5039950;28;20029;-74
2023/04/10 00:18:08;;;;;;;1999.90;999.90;;;1.70;89.30;;;;;;5036986;28;20500;-73
2023/04/10 00:20:34;;;;;;;1999.90;999.90;;;1.70;90.10;;;;;;5034203;28;20033;-74
2023/04/10 00:22:59;;;;;;;1999.90;999.90;;;1.70;89.40;;;;;;5035893;28;20033;-73
2023/04/10 00:25:25;;;;;;;1999.90;999.90;;;1.60;89.20;;;;;;5034427;28;20033;-73
2023/04/10 00:27:53;;;;;;;1999.90;999.90;;;1.60;89.40;;;;;;5033953;28;20041;-72
2023/04/10 00:30:19;;;;;;;1999.90;999.90;;;1.50;89.50;;;;;;5034997;28;20029;-73
2023/04/10 00:32:45;;;;;;;1999.90;999.90;;;1.60;90.30;;;;;;5037942;28;20052;-73
2023/04/10 00:35:11;;;;;;;1999.90;999.90;;;1.60;90.20;;;;;;5033940;28;20049;-73
2023/04/10 00:37:37;;;;;;;1999.90;999.90;;;1.60;90.40;;;;;;5033468;28;20083;-72
2023/04/10 00:40:05;;;;;;;1999.90;999.90;;;1.70;90.30;;;;;;5035177;28;20032;-73
2023/04/10 00:42:31;;;;;;;1999.90;999.90;;;1.70;90.30;;;;;;5028739;28;20030;-73
2023/04/10 00:44:57;;;;;;;1999.90;999.90;;;1.80;90.70;;;;;;5034493;28;20028;-73
2023/04/10 00:47:22;;;;;;;1999.90;999.90;;;1.80;90.00;;;;;;5050519;28;20100;-75
2023/04/10 00:49:49;;;;;;;1999.90;999.90;;;1.70;90.00;;;;;;5037036;28;20490;-72
2023/04/10 00:52:14;;;;;;;1999.90;999.90;;;1.60;89.50;;;;;;5032397;28;20125;-72
2023/04/10 00:54:40;;;;;;;1999.90;999.90;;;1.60;89.70;;;;;;5031891;28;20120;-73
2023/04/10 00:57:06;;;;;;;1999.90;999.90;;;1.50;89.90;;;;;;5035523;28;20033;-74
2023/04/10 00:59:32;;;;;;;1999.90;999.90;;;1.60;90.00;;;;;;5027774;28;20037;-72
2023/04/10 01:01:58;;;;;;;1999.90;999.90;;;1.50;90.30;;;;;;5035187;28;20028;-73
2023/04/10 01:04:27;;;;;;;1999.90;999.90;;;1.60;90.40;;;;;;5027847;28;20033;-73
2023/04/10 01:07:04;;;;;;;1999.90;999.90;;;1.60;90.10;;;;;;5026333;28;20100;-73
2023/04/10 01:09:30;;;;;;;1999.90;999.90;;;1.70;90.20;;;;;;5042802;28;20051;-72
2023/04/10 01:12:26;;;;;;;1999.90;999.90;;;1.80;90.00;;;;;;5036351;28;20053;-72
2023/04/10 01:15:05;;;;;;;1999.90;999.90;;;1.80;89.80;;;;;;5031133;28;20077;-72
2023/04/10 01:17:45;;;;;;;1999.90;999.90;;;1.90;89.20;;;;;;5028370;28;20033;-73
2023/04/10 01:20:31;;;;;;;1999.90;999.90;;;1.90;88.50;;;;;;5024796;28;20512;-73
2023/04/10 01:23:15;;;;;;;1999.90;999.90;;;1.80;88.60;;;;;;5026945;28;20060;-73
2023/04/10 01:25:58;;;;;;;1999.90;999.90;;;1.80;88.40;;;;;;5035484;28;20080;-71
2023/04/10 01:29:02;;;;;;;1999.90;999.90;;;1.80;88.20;;;;;;5037275;28;20040;-72
2023/04/10 01:31:55;;;;;;;1999.90;999.90;;;1.70;88.30;;;;;;5030919;28;20021;-72
2023/04/10 01:34:26;;;;;;;1999.90;999.90;;;1.60;89.10;;;;;;5035068;28;20033;-72
2023/04/10 01:37:03;;;;;;;1999.90;999.90;;;1.50;90.10;;;;;;5035050;28;20108;-72
2023/04/10 01:39:30;;;;;;;1999.90;999.90;;;1.50;90.80;;;;;;5033926;28;20033;-72
2023/04/10 01:41:58;;;;;;;1999.90;999.90;;;1.60;91.00;;;;;;5031963;28;20137;-72
2023/04/10 01:44:28;;;;;;;1999.90;999.90;;;1.60;90.80;;;;;;5029595;28;20037;-72
2023/04/10 01:46:56;;;;;;;1999.90;999.90;;;1.60;90.90;;;;;;5031083;28;20029;-72
2023/04/10 01:49:26;;;;;;;1999.90;999.90;;;1.50;91.00;;;;;;5029883;28;20399;-73
2023/04/10 01:51:54;;;;;;;1999.90;999.90;;;1.50;91.00;;;;;;5030337;28;20383;-72
2023/04/10 01:54:20;;;;;;;1999.90;999.90;;;1.40;91.10;;;;;;5033234;28;20065;-73
2023/04/10 01:56:46;;;;;;;1999.90;999.90;;;1.40;91.80;;;;;;5034173;28;20064;-72
2023/04/10 01:59:11;;;;;;;1999.90;999.90;;;1.40;91.60;;;;;;5030418;28;20038;-72
2023/04/10 02:01:37;;;;;;;1999.90;999.90;;;1.50;91.50;;;;;;5030599;28;20557;-72
2023/04/10 02:04:03;;;;;;;1999.90;999.90;;;1.50;91.30;;;;;;5029998;28;20040;-72
2023/04/10 02:06:35;;;;;;;1999.90;999.90;;;1.40;91.20;;;;;;5034863;28;20030;-72
2023/04/10 02:09:27;;;;;;;1999.90;999.90;;;1.40;91.60;;;;;;5032289;28;20021;-72
2023/04/10 02:12:05;;;;;;;1999.90;999.90;;;1.40;91.60;;;;;;5025916;28;20495;-72
2023/04/10 02:14:35;;;;;;;1999.90;999.90;;;1.20;91.00;;;;;;5033725;28;20059;-72
2023/04/10 02:17:02;;;;;;;1999.90;999.90;;;1.10;91.40;;;;;;5031095;28;20029;-72
2023/04/10 02:19:30;;;;;;;1999.90;999.90;;;1.00;91.30;;;;;;5048808;28;20752;-72
2023/04/10 02:21:57;;;;;;;1999.90;999.90;;;0.80;91.40;;;;;;5031042;28;20400;-73
2023/04/10 02:24:23;;;;;;;1999.90;999.90;;;0.80;91.80;;;;;;5033091;28;20028;-72
2023/04/10 02:26:51;;;;;;;1999.90;999.90;;;0.70;92.00;;;;;;5034911;28;20294;-73
2023/04/10 02:29:17;;;;;;;1999.90;999.90;;;0.70;92.20;;;;;;5033309;28;20623;-72
2023/04/10 02:31:44;;;;;;;1999.90;999.90;;;0.60;92.20;;;;;;5032272;28;20132;-72
2023/04/10 02:34:09;;;;;;;1999.90;999.90;;;0.50;92.20;;;;;;5033178;28;20068;-72
2023/04/10 02:36:39;;;;;;;1999.90;999.90;;;0.40;92.40;;;;;;5035172;28;20069;-72
2023/04/10 02:39:07;;;;;;;1999.90;999.90;;;0.40;92.50;;;;;;5029720;28;20068;-72
2023/04/10 02:41:33;;;;;;;1999.90;999.90;;;0.40;92.80;;;;;;5032339;28;20034;-73
2023/04/10 02:43:58;;;;;;;1999.90;999.90;;;0.30;92.90;;;;;;5036679;28;20059;-72
2023/04/10 02:46:24;;;;;;;1999.90;999.90;;;0.30;92.70;;;;;;5032861;28;20098;-72
2023/04/10 02:48:51;;;;;;;1999.90;999.90;;;0.30;93.20;;;;;;5037284;28;20053;-72
2023/04/10 02:51:17;;;;;;;1999.90;999.90;;;0.20;93.00;;;;;;5029594;28;20398;-72
2023/04/10 02:53:43;;;;;;;1999.90;999.90;;;0.20;93.00;;;;;;5034184;28;20034;-72
2023/04/10 02:56:10;;;;;;;1999.90;999.90;;;0.40;94.30;;;;;;5029859;28;20116;-72
2023/04/10 02:58:37;;;;;;;1999.90;999.90;;;0.60;93.90;;;;;;5032186;28;20030;-72
2023/04/10 03:01:04;;;;;;;1999.90;999.90;;;0.60;94.40;;;;;;5034058;28;20601;-72
2023/04/10 03:03:30;;;;;;;1999.90;999.90;;;0.80;94.60;;;;;;5027494;28;20037;-72
2023/04/10 03:05:55;;;;;;;1999.90;999.90;;;0.70;94.30;;;;;;5037852;28;20067;-72
2023/04/10 03:08:21;;;;;;;1999.90;999.90;;;0.70;94.50;;;;;;5034703;28;20034;-72
2023/04/10 03:10:47;;;;;;;1999.90;999.90;;;0.70;94.80;;;;;;5031823;28;20061;-71
2023/04/10 03:13:14;;;;;;;1999.90;999.90;;;0.80;94.40;;;;;;5033339;28;20032;-72
2023/04/10 03:15:40;;;;;;;1999.90;999.90;;;0.60;94.40;;;;;;5036031;28;20562;-72
2023/04/10 03:18:05;;;;;;;1999.90;999.90;;;0.60;94.70;;;;;;5030108;28;20117;-71
2023/04/10 03:20:32;;;;;;;1999.90;999.90;;;0.50;95.00;;;;;;5035083;28;20025;-72
2023/04/10 03:23:01;;;;;;;1999.90;999.90;;;0.40;94.70;;;;;;5028123;28;20033;-72
2023/04/10 03:25:27;;;;;;;1999.90;999.90;;;0.30;94.70;;;;;;5037245;28;20121;-72
2023/04/10 03:27:53;;;;;;;1999.90;999.90;;;0.30;94.60;;;;;;5035241;28;20844;-73
2023/04/10 03:30:19;;;;;;;1999.90;999.90;;;0.20;94.60;;;;;;5038104;28;20026;-73
2023/04/10 03:32:45;;;;;;;1999.90;999.90;;;0.10;94.70;;;;;;5027307;28;20116;-73
2023/04/10 03:35:10;;;;;;;1999.90;999.90;;;-0.10;94.70;;;;;;5037800;28;20124;-72
2023/04/10 03:37:36;;;;;;;1999.90;999.90;;;-0.10;94.80;;;;;;5038008;28;20037;-71
2023/04/10 03:40:07;;;;;;;1999.90;999.90;;;-0.10;94.80;;;;;;5041657;28;20492;-72
2023/04/10 03:42:33;;;;;;;1999.90;999.90;;;-0.10;95.10;;;;;;5036063;28;20045;-72
2023/04/10 03:45:00;;;;;;;1999.90;999.90;;;-0.20;95.00;;;;;;5035085;28;20040;-72
2023/04/10 03:47:26;;;;;;;1999.90;999.90;;;-0.20;95.00;;;;;;5034616;28;20033;-72
2023/04/10 03:49:51;;;;;;;1999.90;999.90;;;-0.30;94.80;;;;;;5034707;28;20469;-73
2023/04/10 03:52:17;;;;;;;1999.90;999.90;;;-0.30;94.80;;;;;;5034956;28;20033;-73
2023/04/10 03:54:42;;;;;;;1999.90;999.90;;;-0.40;94.80;;;;;;5039557;28;20136;-72
2023/04/10 03:57:08;;;;;;;1999.90;999.90;;;-0.40;94.90;;;;;;5034535;28;20061;-73
2023/04/10 03:59:34;;;;;;;1999.90;999.90;;;-0.40;95.20;;;;;;5041564;28;20033;-73
2023/04/10 04:01:59;;;;;;;1999.90;999.90;;;-0.40;95.40;;;;;;5034329;28;20029;-72
2023/04/10 04:04:26;;;;;;;1999.90;999.90;;;-0.50;95.20;;;;;;5042337;28;20032;-72
2023/04/10 04:06:52;;;;;;;1999.90;999.90;;;-0.50;95.20;;;;;;5051760;28;20041;-73
2023/04/10 04:09:18;;;;;;;1999.90;999.90;;;-0.60;95.10;;;;;;5039315;28;20750;-73
2023/04/10 04:11:43;;;;;;;1999.90;999.90;;;-0.60;95.20;;;;;;5033046;28;20104;-73
2023/04/10 04:14:09;;;;;;;1999.90;999.90;;;-0.50;95.70;;;;;;5049198;28;20182;-73
2023/04/10 04:16:34;;;;;;;1999.90;999.90;;;-0.50;95.70;;;;;;5033430;28;20488;-73
2023/04/10 04:19:00;;;;;;;1999.90;999.90;;;-0.50;95.80;;;;;;5040270;28;20512;-73
2023/04/10 04:21:26;;;;;;;1999.90;999.90;;;-0.30;96.20;;;;;;5031929;28;20037;-73
2023/04/10 04:23:52;;;;;;;1999.90;999.90;;;-0.20;96.80;;;;;;5037116;28;20029;-72
2023/04/10 04:26:17;;;;;;;1999.90;999.90;;;-0.10;96.40;;;;;;5032393;28;20091;-73
2023/04/10 04:28:43;;;;;;;1999.90;999.90;;;-0.20;96.20;;;;;;5037465;28;20061;-73
2023/04/10 04:31:09;;;;;;;1999.90;999.90;;;-0.20;96.30;;;;;;5032598;28;20026;-73
2023/04/10 04:33:34;;;;;;;1999.90;999.90;;;-0.30;96.30;;;;;;5036399;28;20036;-72
2023/04/10 04:36:00;;;;;;;1999.90;999.90;;;-0.30;96.10;;;;;;5034040;28;20049;-73
2023/04/10 04:38:26;;;;;;;1999.90;999.90;;;-0.40;96.00;;;;;;5037948;28;20029;-73
2023/04/10 04:40:51;;;;;;;1999.90;999.90;;;-0.40;96.00;;;;;;5029336;28;20080;-73
2023/04/10 04:43:17;;;;;;;1999.90;999.90;;;-0.40;96.10;;;;;;5038157;28;20083;-73
2023/04/10 04:45:42;;;;;;;1999.90;999.90;;;-0.50;95.90;;;;;;5033666;28;20688;-73
2023/04/10 04:48:08;;;;;;;1999.90;999.90;;;-0.50;95.90;;;;;;5031565;28;20453;-73
2023/04/10 04:50:34;;;;;;;1999.90;999.90;;;-0.40;96.10;;;;;;5030224;28;20033;-72
2023/04/10 04:53:00;;;;;;;1999.90;999.90;;;-0.40;95.90;;;;;;5050994;28;20033;-72
2023/04/10 04:55:25;;;;;;;1999.90;999.90;;;-0.40;96.00;;;;;;5035773;28;20410;-72
2023/04/10 04:57:51;;;;;;;1999.90;999.90;;;-0.40;95.80;;;;;;5037061;28;20041;-72
2023/04/10 05:00:16;;;;;;;1999.90;999.90;;;-0.40;96.00;;;;;;5033507;28;20048;-72
2023/04/10 05:02:42;;;;;;;1999.90;999.90;;;-0.30;96.20;;;;;;5051487;28;20036;-72
2023/04/10 05:05:08;;;;;;;1999.90;999.90;;;-0.20;96.20;;;;;;5034310;28;20037;-72
2023/04/10 05:07:34;;;;;;;1999.90;999.90;;;-0.10;96.30;;;;;;5035476;28;20030;-72
2023/04/10 05:10:00;;;;;;;1999.90;999.90;;;0.10;96.70;;;;;;5037570;28;20025;-72
2023/04/10 05:12:25;;;;;;;1999.90;999.90;;;0.20;96.50;;;;;;5033361;28;20040;-72
2023/04/10 05:14:51;;;;;;;1999.90;999.90;;;0.30;96.40;;;;;;5030273;28;20038;-73
2023/04/10 05:17:17;;;;;;;1999.90;999.90;;;0.40;96.20;;;;;;5028720;28;20037;-73
2023/04/10 05:19:42;;;;;;;1999.90;999.90;;;0.50;96.10;;;;;;5035530;28;20036;-71
2023/04/10 05:22:08;;;;;;;1999.90;999.90;;;0.60;96.00;;;;;;5032734;28;20075;-73
2023/04/10 05:24:34;;;;;;;1999.90;999.90;;;0.60;95.70;;;;;;5035652;28;20036;-72
2023/04/10 05:26:59;;;;;;;1999.90;999.90;;;0.50;95.60;;;;;;5029498;28;20025;-72
2023/04/10 05:29:25;;;;;;;1999.90;999.90;;;0.60;95.60;;;;;;5044367;28;20171;-73
2023/04/10 05:31:51;;;;;;;1999.90;999.90;;;0.70;95.30;;;;;;5033819;28;20138;-74
2023/04/10 05:34:16;;;;;;;1999.90;999.90;;;0.90;95.80;;;;;;5033808;28;20044;-72
2023/04/10 05:36:42;;;;;;;1999.90;999.90;;;1.10;95.50;;;;;;5030862;28;20054;-72
2023/04/10 05:39:08;;;;;;;1999.90;999.90;;;1.20;95.20;;;;;;5034811;28;20037;-72
2023/04/10 05:41:34;;;;;;;1999.90;999.90;;;1.20;95.10;;;;;;5034023;28;20039;-72
2023/04/10 05:43:59;;;;;;;1999.90;999.90;;;1.30;95.10;;;;;;5030318;28;20110;-73
2023/04/10 05:46:25;;;;;;;1999.90;999.90;;;1.40;94.80;;;;;;5031343;28;20118;-73
2023/04/10 05:48:51;;;;;;;1999.90;999.90;;;1.50;94.50;;;;;;5031489;28;20030;-73
2023/04/10 05:51:17;;;;;;;1999.90;999.90;;;1.40;94.00;;;;;;5033294;28;20033;-73
2023/04/10 05:53:43;;;;;;;1999.90;999.90;;;1.30;93.60;;;;;;5033493;28;20029;-73
2023/04/10 05:56:09;;;;;;;1999.90;999.90;;;1.50;94.00;;;;;;5032218;28;20475;-73
2023/04/10 05:58:35;;;;;;;1999.90;999.90;;;1.60;93.80;;;;;;5033796;28;20048;-73
2023/04/10 06:01:01;;;;;;;1999.90;999.90;;;1.60;93.70;;;;;;5031127;28;20025;-73
2023/04/10 06:03:29;;;;;;;1999.90;999.90;;;1.70;93.50;;;;;;5032082;28;20048;-73
2023/04/10 06:05:55;;;;;;;1999.90;999.90;;;1.80;93.30;;;;;;5042780;28;20045;-73
2023/04/10 06:08:21;;;;;;;1999.90;999.90;;;1.90;93.10;;;;;;5030293;28;20112;-72
2023/04/10 06:10:47;;;;;;;1999.90;999.90;;;2.00;92.70;;;;;;5047481;28;20053;-72
2023/04/10 06:13:14;;;;;;;1999.90;999.90;;;2.10;92.60;;;;;;5036998;28;20048;-72
2023/04/10 06:15:40;;;;;;;1999.90;999.90;;;2.20;92.30;;;;;;5034433;28;20491;-72
2023/04/10 06:18:05;;;;;;;1999.90;999.90;;;2.30;91.70;;;;;;5036595;28;20084;-73
2023/04/10 06:20:31;;;;;;;1999.90;999.90;;;2.30;91.40;;;;;;5030889;28;20033;-74
2023/04/10 06:22:58;;;;;;;1999.90;999.90;;;2.20;91.10;;;;;;5036850;28;20059;-72
2023/04/10 06:25:23;;;;;;;1999.90;999.90;;;2.30;91.60;;;;;;5032432;28;20029;-73
2023/04/10 06:27:49;;;;;;;1999.90;999.90;;;2.50;91.40;;;;;;5032771;28;20033;-73
2023/04/10 06:30:15;;;;;;;1999.90;999.90;;;2.70;91.00;;;;;;5035861;28;20113;-71
2023/04/10 06:32:40;;;;;;;1999.90;999.90;;;2.90;90.60;;;;;;5033885;28;20025;-72
2023/04/10 06:35:06;;;;;;;1999.90;999.90;;;2.90;90.00;;;;;;5030228;28;20046;-73
2023/04/10 06:37:32;;;;;;;1999.90;999.90;;;3.10;90.00;;;;;;5034351;28;20064;-73
2023/04/10 06:40:09;;;;;;;1999.90;999.90;;;3.20;89.40;;;;;;5031342;28;20037;-72
2023/04/10 06:42:35;;;;;;;1999.90;999.90;;;3.20;90.10;;;;;;5033251;28;20074;-73
2023/04/10 06:45:02;;;;;;;1999.90;999.90;;;3.30;88.30;;;;;;5032370;28;20034;-72
2023/04/10 06:47:27;;;;;;;1999.90;999.90;;;3.50;88.10;;;;;;5038162;28;20025;-72
2023/04/10 06:49:53;;;;;;;1999.90;999.90;;;3.60;88.00;;;;;;5036023;28;20104;-72
2023/04/10 06:52:19;;;;;;;1999.90;999.90;;;3.80;86.00;;;;;;5040656;28;20036;-73
2023/04/10 06:54:45;;;;;;;1999.90;999.90;;;4.00;86.30;;;;;;5033536;28;20025;-74
2023/04/10 06:57:10;;;;;;;1999.90;999.90;;;3.90;84.80;;;;;;5036579;28;20025;-72
2023/04/10 06:59:36;;;;;;;1999.90;999.90;;;4.20;84.70;;;;;;5031137;28;20044;-73
2023/04/10 07:02:03;;;;;;;1999.90;999.90;;;4.20;84.00;;;;;;5033311;28;20224;-73
2023/04/10 07:04:29;;;;;;;1999.90;999.90;;;4.20;83.60;;;;;;5036566;28;20072;-74
2023/04/10 07:06:55;;;;;;;1999.90;999.90;;;4.50;83.60;;;;;;5037755;28;20041;-73
2023/04/10 07:09:20;;;;;;;1999.90;999.90;;;4.50;82.60;;;;;;5033746;28;20026;-72
2023/04/10 07:11:47;;;;;;;1999.90;999.90;;;4.60;84.00;;;;;;5039257;28;20064;-73
2023/04/10 07:14:12;;;;;;;1999.90;999.90;;;4.70;83.00;;;;;;5034601;28;20143;-74
2023/04/10 07:16:38;;;;;;;1999.90;999.90;;;4.90;83.30;;;;;;5038049;28;20772;-75
2023/04/10 07:19:04;;;;;;;1999.90;999.90;;;5.00;82.20;;;;;;5036417;28;20025;-74
2023/04/10 07:21:30;;;;;;;1999.90;999.90;;;5.10;82.10;;;;;;5037092;28;20387;-75
2023/04/10 07:23:56;;;;;;;1999.90;999.90;;;5.00;83.10;;;;;;5034162;28;20040;-72
2023/04/10 07:26:22;;;;;;;1999.90;999.90;;;5.10;81.70;;;;;;5034520;28;20033;-74
2023/04/10 07:28:48;;;;;;;1999.90;999.90;;;5.10;81.70;;;;;;5036212;28;20317;-74
2023/04/10 07:31:14;;;;;;;1999.90;999.90;;;5.00;81.60;;;;;;5039616;28;20033;-76
2023/04/10 07:33:40;;;;;;;1999.90;999.90;;;4.80;82.10;;;;;;5037277;28;20488;-74
2023/04/10 07:36:06;;;;;;;1999.90;999.90;;;4.90;83.00;;;;;;5036260;28;20050;-72
2023/04/10 07:38:32;;;;;;;1999.90;999.90;;;5.00;81.50;;;;;;5035768;28;20116;-74
2023/04/10 07:40:58;;;;;;;1999.90;999.90;;;4.90;81.60;;;;;;5033083;28;21370;-74
2023/04/10 07:43:24;;;;;;;1999.90;999.90;;;4.90;82.00;;;;;;5036859;28;20026;-74
2023/04/10 07:45:50;;;;;;;1999.90;999.90;;;5.00;82.50;;;;;;5035909;28;20047;-73
2023/04/10 07:48:15;;;;;;;1999.90;999.90;;;5.30;81.30;;;;;;5032714;28;20108;-76
2023/04/10 07:50:41;;;;;;;1999.90;999.90;;;5.40;82.10;;;;;;5034113;28;20529;-75
2023/04/10 07:53:07;;;;;;;1999.90;999.90;;;5.50;80.30;;;;;;5039059;28;20040;-74
2023/04/10 07:55:39;;;;;;;1999.90;999.90;;;5.60;80.10;;;;;;5036343;28;20025;-73
2023/04/10 07:58:05;;;;;;;1999.90;999.90;;;5.70;80.00;;;;;;5035903;28;20476;-73
2023/04/10 08:00:31;;;;;;;1999.90;999.90;;;5.90;79.10;;;;;;5036753;28;20029;-74
2023/04/10 08:02:57;;;;;;;1999.90;999.90;;;6.00;79.00;;;;;;5034028;28;20029;-75
2023/04/10 08:05:23;;;;;;;1999.90;999.90;;;6.20;76.50;;;;;;5035826;28;20040;-74
2023/04/10 08:07:49;;;;;;;1999.90;999.90;;;6.30;76.50;;;;;;5039366;28;20061;-75
2023/04/10 08:10:14;;;;;;;1999.90;999.90;;;6.40;75.70;;;;;;5035143;28;20037;-73
2023/04/10 08:12:40;;;;;;;1999.90;999.90;;;6.60;75.60;;;;;;5033583;28;20030;-75
2023/04/10 08:15:06;;;;;;;1999.90;999.90;;;6.70;74.10;;;;;;5038789;28;20486;-73
2023/04/10 08:17:32;;;;;;;1999.90;999.90;;;6.80;74.60;;;;;;5031191;28;20076;-74
2023/04/10 08:19:57;;;;;;;1999.90;999.90;;;6.90;76.20;;;;;;5035190;28;20061;-74
2023/04/10 08:22:23;;;;;;;1999.90;999.90;;;7.20;73.50;;;;;;5034723;28;20040;-75
2023/04/10 08:24:49;;;;;;;1999.90;999.90;;;7.20;73.80;;;;;;5032148;28;20045;-74
2023/04/10 08:27:15;;;;;;;1999.90;999.90;;;7.40;73.00;;;;;;5036799;28;20039;-73
2023/04/10 08:29:42;;;;;;;1999.90;999.90;;;7.50;72.80;;;;;;5033704;28;20080;-73
2023/04/10 08:32:08;;;;;;;1999.90;999.90;;;7.60;71.70;;;;;;5036599;28;20022;-74
2023/04/10 08:34:34;;;;;;;1999.90;999.90;;;7.60;71.60;;;;;;5039158;28;20025;-75
2023/04/10 08:36:59;;;;;;;1999.90;999.90;;;7.70;72.70;;;;;;5034054;28;20049;-73
2023/04/10 08:39:25;;;;;;;1999.90;999.90;;;7.80;71.50;;;;;;5034671;28;20083;-74
2023/04/10 08:41:51;;;;;;;1999.90;999.90;;;8.00;70.20;;;;;;5035754;28;20044;-75
2023/04/10 08:44:16;;;;;;;1999.90;999.90;;;8.20;70.60;;;;;;5032358;28;20073;-73
2023/04/10 08:46:44;;;;;;;1999.90;999.90;;;8.50;69.40;;;;;;5037173;28;20051;-73
2023/04/10 08:49:16;;;;;;;1999.90;999.90;;;8.90;68.00;;;;;;5031711;28;20029;-76
2023/04/10 08:51:50;;;;;;;1999.90;999.90;;;9.10;69.30;;;;;;5037370;28;20025;-75
2023/04/10 08:54:30;;;;;;;1999.90;999.90;;;9.30;66.60;;;;;;5032830;28;20059;-74
2023/04/10 08:56:57;;;;;;;1999.90;999.90;;;9.50;64.90;;;;;;5036071;28;20069;-75
2023/04/10 08:59:23;;;;;;;1999.90;999.90;;;9.50;65.10;;;;;;5050096;28;20052;-74
2023/04/10 09:01:49;;;;;;;1999.90;999.90;;;9.80;64.20;;;;;;5034477;28;20081;-74
2023/04/10 09:04:16;;;;;;;1999.90;999.90;;;10.10;64.80;;;;;;5031868;28;20578;-73
2023/04/10 09:06:42;;;;;;;1999.90;999.90;;;10.10;65.20;;;;;;5037533;28;20064;-73
2023/04/10 09:09:08;;;;;;;1999.90;999.90;;;10.70;64.40;;;;;;5031350;28;20072;-74
2023/04/10 09:11:55;;;;;;;1999.90;999.90;;;11.10;61.50;;;;;;5036748;28;20093;-74
2023/04/10 09:14:24;;;;;;;1999.90;999.90;;;11.20;60.90;;;;;;5033612;28;20029;-75
2023/04/10 09:16:51;;;;;;;1999.90;999.90;;;11.60;59.50;;;;;;5035982;28;20041;-75
2023/04/10 09:19:30;;;;;;;1999.90;999.90;;;12.10;59.50;;;;;;5033314;28;20033;-73
2023/04/10 09:21:56;;;;;;;1999.90;999.90;;;12.30;58.20;;;;;;5034350;28;20040;-73
2023/04/10 09:24:26;;;;;;;1999.90;999.90;;;12.10;56.20;;;;;;5033043;28;20037;-74
2023/04/10 09:26:52;;;;;;;1999.90;999.90;;;12.20;58.50;;;;;;5031914;28;20033;-74
2023/04/10 09:29:17;;;;;;;1999.90;999.90;;;12.40;55.60;;;;;;5037547;28;20029;-73
2023/04/10 09:31:44;;;;;;;1999.90;999.90;;;12.50;53.00;;;;;;5033389;28;20022;-75
2023/04/10 09:34:11;;;;;;;1999.90;999.90;;;12.10;54.00;;;;;;5031605;28;20026;-75
2023/04/10 09:36:37;;;;;;;1999.90;999.90;;;12.90;53.60;;;;;;5029727;28;20048;-73
2023/04/10 09:39:06;;;;;;;1999.90;999.90;;;13.20;52.70;;;;;;5035598;28;20021;-74
2023/04/10 09:41:32;;;;;;;1999.90;999.90;;;13.10;51.30;;;;;;5036267;28;20588;-74
2023/04/10 09:44:11;;;;;;;1999.90;999.90;;;13.10;51.20;;;;;;5031463;28;20049;-75
2023/04/10 09:46:37;;;;;;;1999.90;999.90;;;13.40;48.60;;;;;;5029549;28;20518;-75
2023/04/10 09:49:06;;;;;;;1999.90;999.90;;;13.30;45.60;;;;;;5031664;28;20082;-74
2023/04/10 09:51:33;;;;;;;1999.90;999.90;;;13.20;48.50;;;;;;5036633;28;20051;-75
2023/04/10 09:54:00;;;;;;;1999.90;999.90;;;13.50;47.00;;;;;;5038735;28;20041;-73
2023/04/10 09:56:27;;;;;;;1999.90;999.90;;;13.60;45.90;;;;;;5035558;28;20059;-75
2023/04/10 09:58:57;;;;;;;1999.90;999.90;;;13.90;46.90;;;;;;5035129;28;20030;-74
2023/04/10 10:01:25;;;;;;;1999.90;999.90;;;13.90;44.30;;;;;;5040670;28;20040;-75
2023/04/10 10:03:54;;;;;;;1999.90;999.90;;;14.00;46.50;;;;;;5030924;28;20780;-73
2023/04/10 10:06:22;;;;;;;1999.90;999.90;;;14.40;46.10;;;;;;5033846;28;20438;-74
2023/04/10 10:08:48;;;;;;;1999.90;999.90;;;14.50;48.70;;;;;;5032856;28;20066;-74
2023/04/10 10:11:20;;;;;;;1999.90;999.90;;;14.60;46.60;;;;;;5038935;28;20104;-74
2023/04/10 10:13:55;;;;;;;1999.90;999.90;;;14.10;44.50;;;;;;5033491;28;20029;-75
2023/04/10 10:16:46;;;;;;;1999.90;999.90;;;14.40;47.00;;;;;;5033733;28;20030;-74
2023/04/10 10:19:31;;;;;;;1999.90;999.90;;;14.50;42.70;;;;;;5031343;28;20113;-74
2023/04/10 10:22:00;;;;;;;1999.90;999.90;;;14.50;43.30;;;;;;5031868;28;20037;-73
2023/04/10 10:24:28;;;;;;;1999.90;999.90;;;14.90;45.10;;;;;;5035892;28;20033;-75
2023/04/10 10:26:56;;;;;;;1999.90;999.90;;;15.10;43.10;;;;;;5031270;28;20427;-74
2023/04/10 10:29:23;;;;;;;1999.90;999.90;;;15.20;44.10;;;;;;5036433;28;20029;-75
2023/04/10 10:31:49;;;;;;;1999.90;999.90;;;15.30;40.90;;;;;;5033540;28;20026;-75
2023/04/10 10:34:15;;;;;;;1999.90;999.90;;;15.30;42.70;;;;;;5032673;28;20021;-75
2023/04/10 10:36:41;;;;;;;1999.90;999.90;;;15.60;40.50;;;;;;5031363;28;20045;-74
2023/04/10 10:39:16;;;;;;;1999.90;999.90;;;15.60;44.50;;;;;;5029936;28;20479;-74
2023/04/10 10:42:09;;;;;;;1999.90;999.90;;;15.90;40.00;;;;;;5033135;28;20034;-75
2023/04/10 10:44:46;;;;;;;1999.90;999.90;;;16.10;39.00;;;;;;5035352;28;20075;-74
2023/04/10 10:47:29;;;;;;;1999.90;999.90;;;16.30;38.60;;;;;;5030877;28;20051;-74
2023/04/10 10:50:02;;;;;;;1999.90;999.90;;;16.50;39.60;;;;;;5031856;28;20026;-74
2023/04/10 10:52:49;;;;;;;1999.90;999.90;;;17.10;38.50;;;;;;5031591;28;20025;-73
2023/04/10 10:55:24;;;;;;;1999.90;999.90;;;17.00;35.70;;;;;;5036242;28;20018;-74
2023/04/10 10:57:53;;;;;;;1999.90;999.90;;;16.90;33.60;;;;;;5031895;28;20029;-73
2023/04/10 11:00:23;;;;;;;1999.90;999.90;;;17.00;35.50;;;;;;5033236;28;20108;-74
2023/04/10 11:03:06;;;;;;;1999.90;999.90;;;17.80;34.50;;;;;;5029623;28;20120;-73
2023/04/10 11:05:51;;;;;;;1999.90;999.90;;;18.40;33.30;;;;;;5034548;28;20037;-74
2023/04/10 11:08:17;;;;;;;1999.90;999.90;;;18.40;29.80;;;;;;5030517;28;20036;-74
2023/04/10 11:11:08;;;;;;;1999.90;999.90;;;19.20;28.50;;;;;;5034132;28;20034;-72
2023/04/10 11:13:42;;;;;;;1999.90;999.90;;;19.00;27.90;;;;;;5032891;28;20028;-72
2023/04/10 11:16:09;;;;;;;1999.90;999.90;;;19.70;29.30;;;;;;5033067;28;20037;-72
2023/04/10 11:18:47;;;;;;;1999.90;999.90;;;18.80;25.40;;;;;;5033214;28;20099;-73
2023/04/10 11:21:17;;;;;;;1999.90;999.90;;;19.10;29.40;;;;;;5029280;28;20033;-72
2023/04/10 11:23:48;;;;;;;;;;;19.20;27.60;;;;;;5032191;28;20044;-73
2023/04/10 11:26:38;;;;;;;1999.90;999.90;;;19.50;25.80;;;;;;5033363;28;19913;-72
2023/04/10 11:29:21;;;;;;;1999.90;999.90;;;19.30;26.90;;;;;;5030526;28;20087;-71
2023/04/10 11:31:57;;;;;;;1999.90;999.90;;;19.50;26.00;;;;;;5030214;28;20060;-73
2023/04/10 11:34:23;;;;;;;1999.90;999.90;;;20.20;27.30;;;;;;5030071;28;20029;-73
2023/04/10 11:36:49;;;;;;;1999.90;999.90;;;20.50;25.70;;;;;;5028373;28;20057;-72
2023/04/10 11:39:19;;;;;;;1999.90;999.90;;;21.10;25.30;;;;;;5033277;28;20489;-72
2023/04/10 11:41:45;;;;;;;;;;;21.20;24.80;;;;;;5030739;28;20032;-72
2023/04/10 11:44:31;;;;;;;1999.90;999.90;;;21.70;24.10;;;;;;5032364;28;19912;-73
2023/04/10 11:46:57;;;;;;;1999.90;999.90;;;21.20;25.00;;;;;;5030792;28;20048;-73
2023/04/10 11:49:25;;;;;;;1999.90;999.90;;;21.70;26.00;;;;;;5037898;28;20040;-72
2023/04/10 11:51:51;;;;;;;1999.90;999.90;;;20.10;25.50;;;;;;5034358;28;20052;-72
2023/04/10 11:54:18;;;;;;;1999.90;999.90;;;19.90;25.10;;;;;;5038934;28;20093;-72
2023/04/10 11:56:55;;;;;;;1999.90;999.90;;;20.70;25.50;;;;;;5036263;28;20037;-72
2023/04/10 11:59:22;;;;;;;1999.90;999.90;;;20.50;26.20;;;;;;5036557;28;20124;-71
2023/04/10 12:01:49;;;;;;;1999.90;999.90;;;20.30;26.20;;;;;;5035928;28;20033;-72
2023/04/10 12:04:18;;;;;;;1999.90;999.90;;;20.30;25.80;;;;;;5040772;28;20071;-71
2023/04/10 12:06:45;;;;;;;1999.90;999.90;;;19.40;24.80;;;;;;5034376;28;20496;-72
2023/04/10 12:09:16;;;;;;;1999.90;999.90;;;20.00;27.30;;;;;;5036719;28;20557;-72
2023/04/10 12:12:00;;;;;;;1999.90;999.90;;;20.40;23.90;;;;;;5036707;28;20061;-73